Time;durP1;ratioP1;P1;durP2;ratioP2;P2;SDS_P1;SDS_P2;PMS_P1;PMS_P2;Temp;Humidity;BMP_temperature;BMP_pressure;BME280_temperature;BME280_humidity;BME280_pressure;Samples;Min_cycle;Max_cycle;Signal;HPM_P1;HPM_P2
2023/09/03 00:02:20;;;;;;;14.43;8.82;;;;;;;18.50;61.70;100737.41;5037077;28;20045;-83
2023/09/03 00:04:47;;;;;;;11.30;8.98;;;;;;;18.50;61.69;100748.06;5039580;28;20534;-83
2023/09/03 00:07:13;;;;;;;12.27;9.35;;;;;;;18.47;61.61;100757.16;5032288;28;20081;-84
2023/09/03 00:09:40;;;;;;;9.95;8.90;;;;;;;18.46;61.41;100755.44;5031073;28;20080;-83
2023/09/03 00:12:06;;;;;;;14.27;8.77;;;;;;;18.43;61.57;100739.69;5031844;28;20084;-83
2023/09/03 00:14:33;;;;;;;11.95;9.30;;;;;;;18.42;61.76;100750.44;5033526;28;20045;-83
2023/09/03 00:16:59;;;;;;;12.00;10.68;;;;;;;18.40;62.12;100749.72;5047652;28;20499;-84
2023/09/03 00:19:26;;;;;;;12.93;10.07;;;;;;;18.39;62.24;100761.34;5052357;28;20053;-83
2023/09/03 00:21:52;;;;;;;11.50;10.00;;;;;;;18.35;61.88;100750.91;5052154;28;20476;-83
2023/09/03 00:24:19;;;;;;;11.55;8.70;;;;;;;18.33;61.57;100766.19;5033371;28;20144;-83
2023/09/03 00:26:45;;;;;;;9.57;8.60;;;;;;;18.30;61.45;100766.41;5017125;28;20060;-83
2023/09/03 00:29:12;;;;;;;10.90;9.27;;;;;;;18.29;61.57;100774.50;5047996;28;20053;-83
2023/09/03 00:31:38;;;;;;;15.00;9.48;;;;;;;18.25;62.09;100778.34;5014478;28;20449;-83
2023/09/03 00:34:05;;;;;;;12.38;10.60;;;;;;;18.22;62.06;100779.44;5033442;28;20049;-83
2023/09/03 00:36:31;;;;;;;14.40;10.80;;;;;;;18.20;62.27;100781.34;5032116;28;20088;-83
2023/09/03 00:38:58;;;;;;;12.02;9.93;;;;;;;18.18;62.09;100783.28;5048617;28;20045;-83
2023/09/03 00:41:24;;;;;;;12.15;10.20;;;;;;;18.17;62.39;100779.75;5051548;28;20576;-83
2023/09/03 00:43:51;;;;;;;12.23;10.45;;;;;;;18.15;62.15;100788.84;5051674;28;20056;-83
2023/09/03 00:46:17;;;;;;;12.23;10.90;;;;;;;18.14;62.25;100788.00;5050091;28;20099;-83
2023/09/03 00:48:44;;;;;;;11.77;10.55;;;;;;;18.12;62.58;100779.25;5018945;28;20045;-83
2023/09/03 00:51:11;;;;;;;13.63;11.00;;;;;;;18.10;62.49;100774.03;5031693;28;20047;-84
2023/09/03 00:53:41;;;;;;;12.32;10.90;;;;;;;18.08;63.14;100783.09;5038248;28;20446;-83
2023/09/03 00:56:08;;;;;;;11.15;9.65;;;;;;;18.06;62.54;100785.84;5048064;28;20468;-83
2023/09/03 00:58:36;;;;;;;11.18;10.00;;;;;;;18.04;62.87;100782.44;5051300;28;20052;-83
2023/09/03 01:01:06;;;;;;;12.75;9.50;;;;;;;18.03;62.77;100780.75;5031411;28;20077;-83
2023/09/03 01:03:35;;;;;;;10.85;9.38;;;;;;;18.03;62.84;100779.88;5025136;28;20124;-83
2023/09/03 01:06:02;;;;;;;10.95;9.20;;;;;;;18.02;62.64;100776.38;5051421;28;20048;-84
2023/09/03 01:08:29;;;;;;;14.07;9.57;;;;;;;18.00;62.60;100780.97;5038079;28;20053;-83
2023/09/03 01:11:06;;;;;;;12.00;9.77;;;;;;;17.96;63.20;100783.00;5014597;28;20075;-83
2023/09/03 01:13:41;;;;;;;10.40;9.32;;;;;;;17.95;62.78;100770.63;5031429;28;20544;-84
2023/09/03 01:16:18;;;;;;;12.32;10.10;;;;;;;17.92;63.26;100773.53;5031273;28;20095;-83
2023/09/03 01:18:46;;;;;;;13.32;10.38;;;;;;;17.93;62.61;100774.38;5031190;28;20046;-83
2023/09/03 01:21:42;;;;;;;14.32;10.90;;;;;;;17.87;63.49;100774.81;5032086;28;20076;-84
2023/09/03 01:24:45;;;;;;;13.63;11.10;;;;;;;17.88;63.87;100781.84;5040538;28;20390;-83
2023/09/03 01:27:26;;;;;;;11.48;9.38;;;;;;;17.89;63.41;100780.88;5050922;28;20049;-84
2023/09/03 01:29:53;;;;;;;12.80;11.15;;;;;;;17.91;62.74;100784.28;5033366;28;20099;-83
2023/09/03 01:32:21;;;;;;;15.27;12.13;;;;;;;17.90;63.11;100785.25;5048940;28;20567;-83
2023/09/03 01:34:49;;;;;;;14.15;11.65;;;;;;;17.90;62.87;100783.44;5051052;28;20182;-83
2023/09/03 01:37:16;;;;;;;15.90;11.75;;;;;;;17.90;63.06;100785.25;5050632;28;20052;-83
2023/09/03 01:39:42;;;;;;;11.85;10.25;;;;;;;17.90;63.12;100793.25;5050676;28;20545;-83
2023/09/03 01:42:09;;;;;;;13.60;11.60;;;;;;;17.88;63.01;100789.84;5046687;28;20140;-83
2023/09/03 01:44:36;;;;;;;15.25;11.30;;;;;;;17.87;63.13;100793.47;5032156;28;20136;-83
2023/09/03 01:47:12;;;;;;;13.73;11.88;;;;;;;17.85;62.98;100804.22;5031008;28;20091;-83
2023/09/03 01:49:57;;;;;;;14.02;11.65;;;;;;;17.79;63.62;100815.31;5030943;28;20107;-83
2023/09/03 01:52:24;;;;;;;11.38;10.18;;;;;;;17.81;62.80;100822.25;5031858;28;20136;-83
2023/09/03 01:54:54;;;;;;;10.90;8.73;;;;;;;17.77;62.69;100817.22;5030962;28;20084;-83
2023/09/03 01:57:33;;;;;;;10.55;8.77;;;;;;;17.71;63.00;100821.16;5031959;28;20050;-83
2023/09/03 02:00:10;;;;;;;15.27;10.10;;;;;;;17.68;63.29;100829.41;5030789;28;20053;-83
2023/09/03 02:02:37;;;;;;;16.42;11.68;;;;;;;17.68;62.77;100821.41;5031660;28;20049;-83
2023/09/03 02:05:06;;;;;;;14.13;12.07;;;;;;;17.63;63.00;100827.03;5030566;28;20129;-83
2023/09/03 02:07:33;;;;;;;16.42;12.05;;;;;;;17.63;62.99;100799.56;5035720;28;20045;-83
2023/09/03 02:09:59;;;;;;;14.40;10.95;;;;;;;17.61;63.02;100786.38;5050483;28;20488;-83
2023/09/03 02:12:26;;;;;;;15.50;12.43;;;;;;;17.59;63.00;100782.97;5050153;28;20128;-82
2023/09/03 02:14:52;;;;;;;16.00;12.48;;;;;;;17.56;63.38;100781.38;5052916;28;20049;-83
2023/09/03 02:17:19;;;;;;;15.73;12.60;;;;;;;17.56;63.37;100773.38;5050921;28;20132;-83
2023/09/03 02:19:50;;;;;;;15.90;12.75;;;;;;;17.54;64.28;100767.28;5017022;28;20045;-83
2023/09/03 02:22:17;;;;;;;13.23;11.80;;;;;;;17.54;63.79;100764.63;5037413;28;20102;-83
2023/09/03 02:24:43;;;;;;;15.50;12.23;;;;;;;17.54;63.34;100759.31;5052700;28;20136;-83
2023/09/03 02:27:11;;;;;;;13.13;10.23;;;;;;;17.51;63.58;100756.88;5049972;28;20046;-83
2023/09/03 02:29:38;;;;;;;13.07;11.23;;;;;;;17.50;63.44;100741.88;5034344;28;20049;-83
2023/09/03 02:32:06;;;;;;;15.93;12.30;;;;;;;17.49;63.63;100732.16;5036910;28;20072;-83
2023/09/03 02:34:32;;;;;;;14.75;11.88;;;;;;;17.48;63.78;100732.28;5035054;28;20096;-83
2023/09/03 02:36:59;;;;;;;11.95;10.55;;;;;;;17.47;63.73;100735.91;5053294;28;20091;-83
2023/09/03 02:39:25;;;;;;;12.90;11.35;;;;;;;17.45;63.56;100728.03;5034088;28;20474;-83
2023/09/03 02:41:52;;;;;;;11.00;9.90;;;;;;;17.44;63.63;100726.31;5034102;28;20081;-83
2023/09/03 02:44:19;;;;;;;12.20;10.60;;;;;;;17.44;63.79;100734.31;5053661;28;20552;-83
2023/09/03 02:46:45;;;;;;;13.45;11.57;;;;;;;17.41;63.56;100726.53;5048860;28;20047;-82
2023/09/03 02:49:12;;;;;;;13.07;11.60;;;;;;;17.41;63.89;100726.53;5034209;28;20081;-83
2023/09/03 02:51:38;;;;;;;18.30;12.30;;;;;;;17.39;63.80;100728.47;5033889;28;20053;-83
2023/09/03 02:54:05;;;;;;;15.10;11.70;;;;;;;17.38;64.12;100724.09;5053774;28;20645;-83
2023/09/03 02:56:32;;;;;;;15.43;12.45;;;;;;;17.36;64.16;100726.88;5050520;28;20080;-83
2023/09/03 02:58:58;;;;;;;17.00;11.48;;;;;;;17.36;64.25;100723.34;5051089;28;20063;-83
2023/09/03 03:01:25;;;;;;;15.05;11.40;;;;;;;17.35;64.07;100738.47;5033886;28;20139;-83
2023/09/03 03:03:52;;;;;;;15.15;11.32;;;;;;;17.34;64.09;100733.28;5033860;28;20063;-83
2023/09/03 03:06:18;;;;;;;15.90;10.73;;;;;;;17.33;63.88;100737.72;5034073;28;20456;-83
2023/09/03 03:08:45;;;;;;;14.95;10.75;;;;;;;17.35;63.73;100742.94;5048695;28;20049;-82
2023/09/03 03:11:14;;;;;;;19.52;10.23;;;;;;;17.32;63.67;100749.34;5034077;28;20080;-83
2023/09/03 03:13:42;;;;;;;11.00;9.13;;;;;;;17.30;63.74;100756.56;5053191;28;20152;-83
2023/09/03 03:16:11;;;;;;;10.18;9.00;;;;;;;17.29;63.56;100758.38;5053762;28;20114;-83
2023/09/03 03:18:43;;;;;;;11.93;9.57;;;;;;;17.26;64.22;100758.59;5053416;28;20084;-83
2023/09/03 03:21:15;;;;;;;17.50;10.90;;;;;;;17.26;63.99;100763.91;5051618;28;20088;-82
2023/09/03 03:23:45;;;;;;;12.32;8.90;;;;;;;17.26;63.51;100779.88;5020570;28;20057;-83
2023/09/03 03:26:12;;;;;;;11.68;8.43;;;;;;;17.25;63.22;100779.97;5015770;28;20049;-83
2023/09/03 03:28:38;;;;;;;9.48;7.97;;;;;;;17.22;62.97;100781.03;5050997;28;20080;-83
2023/09/03 03:31:13;;;;;;;10.43;8.20;;;;;;;17.16;63.42;100798.28;5051519;28;20040;-83
2023/09/03 03:33:41;;;;;;;10.57;7.97;;;;;;;17.15;63.20;100793.06;5047611;28;20485;-83
2023/09/03 03:36:14;;;;;;;10.40;7.75;;;;;;;17.12;63.38;100811.91;5053333;28;20084;-83
2023/09/03 03:38:41;;;;;;;10.38;8.25;;;;;;;17.09;63.25;100812.09;5035045;28;20059;-83
2023/09/03 03:41:13;;;;;;;10.88;8.90;;;;;;;17.04;63.87;100813.28;5033361;28;20535;-83
2023/09/03 03:43:42;;;;;;;13.10;9.10;;;;;;;17.03;63.92;100810.69;5052738;28;20139;-82
2023/09/03 03:46:10;;;;;;;11.85;8.70;;;;;;;17.01;64.31;100816.09;5035384;28;20132;-82
2023/09/03 03:48:37;;;;;;;12.45;8.27;;;;;;;17.01;64.26;100821.41;5038611;28;20057;-82
2023/09/03 03:51:03;;;;;;;9.43;7.47;;;;;;;17.01;64.18;100820.59;5032704;28;20123;-82
2023/09/03 03:53:30;;;;;;;12.52;7.63;;;;;;;17.01;63.81;100813.44;5033904;28;20081;-83
2023/09/03 03:55:58;;;;;;;10.13;8.07;;;;;;;16.99;63.99;100810.03;5033942;28;20501;-83
2023/09/03 03:58:27;;;;;;;9.80;7.85;;;;;;;16.99;63.95;100807.38;5032851;28;20144;-83
2023/09/03 04:00:54;;;;;;;10.35;8.32;;;;;;;16.97;64.07;100797.81;5032438;28;20045;-82
2023/09/03 04:03:27;;;;;;;12.57;8.88;;;;;;;16.94;64.77;100807.69;5048111;28;20056;-83
2023/09/03 04:06:01;;;;;;;12.90;8.93;;;;;;;16.91;64.76;100812.38;5052536;28;20566;-83
2023/09/03 04:08:32;;;;;;;11.55;9.35;;;;;;;16.90;64.53;100802.69;5049982;28;20049;-83
2023/09/03 04:11:00;;;;;;;10.25;8.85;;;;;;;16.90;64.39;100797.38;5052370;28;20481;-82
2023/09/03 04:13:27;;;;;;;14.80;9.85;;;;;;;16.88;64.33;100792.16;5052057;28;20049;-83
2023/09/03 04:15:55;;;;;;;11.82;9.43;;;;;;;16.86;64.47;100795.88;5034615;28;20084;-83
2023/09/03 04:18:22;;;;;;;15.05;10.55;;;;;;;16.85;64.29;100807.47;5050644;28;20484;-83
2023/09/03 04:20:53;;;;;;;12.40;9.05;;;;;;;16.80;64.75;100815.75;5051270;28;20503;-83
2023/09/03 04:23:20;;;;;;;13.38;9.20;;;;;;;16.79;64.39;100806.06;5047105;28;20126;-82
2023/09/03 04:25:47;;;;;;;13.88;9.18;;;;;;;16.80;64.10;100821.06;5032297;28;20053;-83
2023/09/03 04:28:14;;;;;;;15.43;9.30;;;;;;;16.76;64.03;100828.38;5027678;28;20124;-83
2023/09/03 04:30:41;;;;;;;12.38;9.88;;;;;;;16.73;64.12;100836.56;5051731;28;20049;-83
2023/09/03 04:33:08;;;;;;;13.18;9.93;;;;;;;16.71;64.18;100834.97;5017223;28;20045;-83
2023/09/03 04:35:35;;;;;;;11.52;10.20;;;;;;;16.69;64.14;100837.72;5031640;28;20041;-83
2023/09/03 04:38:03;;;;;;;14.00;9.50;;;;;;;16.67;64.39;100850.25;5031981;28;20395;-82
2023/09/03 04:40:36;;;;;;;11.63;10.27;;;;;;;16.63;65.03;100856.75;5050560;28;20504;-82
2023/09/03 04:43:04;;;;;;;14.52;10.20;;;;;;;16.63;64.35;100848.75;5042270;28;20095;-82
2023/09/03 04:45:31;;;;;;;14.57;11.98;;;;;;;16.61;64.57;100862.16;5031914;28;20095;-83
2023/09/03 04:47:58;;;;;;;15.43;10.98;;;;;;;16.61;64.70;100858.63;5031895;28;20123;-82
2023/09/03 04:50:25;;;;;;;13.18;10.85;;;;;;;16.60;64.75;100849.78;5032720;28;20136;-83
2023/09/03 04:52:55;;;;;;;19.98;10.55;;;;;;;16.58;65.31;100857.03;5034011;28;20045;-83
2023/09/03 04:55:22;;;;;;;15.43;10.40;;;;;;;16.60;64.64;100849.78;5039356;28;20131;-82
2023/09/03 04:57:48;;;;;;;21.63;11.55;;;;;;;16.60;65.06;100851.63;5046647;28;20053;-82
2023/09/03 05:00:15;;;;;;;12.82;10.32;;;;;;;16.61;65.04;100858.63;5044222;28;20053;-82
2023/09/03 05:02:42;;;;;;;14.35;11.00;;;;;;;16.62;65.38;100865.66;5051350;28;20092;-83
2023/09/03 05:05:09;;;;;;;13.57;10.93;;;;;;;16.61;65.09;100867.47;5051498;28;20128;-82
2023/09/03 05:07:36;;;;;;;16.23;11.55;;;;;;;16.64;65.10;100874.38;5051051;28;20084;-82
2023/09/03 05:10:02;;;;;;;11.38;10.25;;;;;;;16.65;65.30;100876.09;5049560;28;20529;-82
2023/09/03 05:12:29;;;;;;;13.05;11.52;;;;;;;16.65;65.56;100871.63;5050583;28;20151;-83
2023/09/03 05:14:55;;;;;;;14.00;11.73;;;;;;;16.67;65.80;100877.69;5051433;28;20174;-82
2023/09/03 05:17:22;;;;;;;16.42;12.50;;;;;;;16.70;66.02;100881.94;5051219;28;20053;-83
2023/09/03 05:19:49;;;;;;;13.40;11.82;;;;;;;16.72;66.08;100890.69;5049688;28;20488;-83
2023/09/03 05:22:15;;;;;;;14.32;12.73;;;;;;;16.76;66.34;100891.34;5047397;28;20037;-83
2023/09/03 05:24:42;;;;;;;18.50;13.48;;;;;;;16.79;66.71;100891.97;5031289;28;20092;-83
2023/09/03 05:27:09;;;;;;;14.75;12.68;;;;;;;16.84;66.91;100902.34;5035441;28;20520;-82
2023/09/03 05:29:36;;;;;;;14.73;12.65;;;;;;;16.90;66.88;100903.75;5038661;28;20057;-83
2023/09/03 05:32:02;;;;;;;23.85;12.98;;;;;;;16.95;67.18;100906.94;5031997;28;20096;-84
2023/09/03 05:34:29;;;;;;;16.17;12.32;;;;;;;16.99;67.32;100913.78;5031307;28;20072;-82
2023/09/03 05:36:55;;;;;;;16.23;11.80;;;;;;;17.05;66.85;100913.38;5031678;28;20490;-83
2023/09/03 05:39:22;;;;;;;15.70;11.35;;;;;;;17.09;66.99;100914.06;5044407;28;20111;-82
2023/09/03 05:41:48;;;;;;;16.38;10.50;;;;;;;17.15;66.41;100921.63;5038272;28;20545;-82
2023/09/03 05:44:15;;;;;;;14.00;11.63;;;;;;;17.19;66.62;100925.78;5049662;28;20481;-81
2023/09/03 05:46:43;;;;;;;14.65;11.73;;;;;;;17.24;66.55;100933.47;5050274;28;20143;-82
2023/09/03 05:49:09;;;;;;;14.23;11.63;;;;;;;17.27;66.48;100946.56;5048085;28;20059;-82
2023/09/03 05:51:36;;;;;;;11.48;9.45;;;;;;;17.30;66.51;100938.38;5050366;28;20103;-82
2023/09/03 05:54:03;;;;;;;17.42;11.40;;;;;;;17.32;66.85;100949.75;5045543;28;20053;-82
2023/09/03 05:56:30;;;;;;;18.67;11.55;;;;;;;17.36;66.85;100950.44;5050586;28;20143;-82
2023/09/03 05:59:02;;;;;;;14.38;11.18;;;;;;;17.40;66.79;100954.59;5021243;28;20053;-82
2023/09/03 06:01:29;;;;;;;12.05;10.75;;;;;;;17.44;66.86;100963.22;5030615;28;20453;-82
2023/09/03 06:03:56;;;;;;;15.30;12.73;;;;;;;17.49;66.74;100971.75;5030987;28;20064;-82
2023/09/03 06:06:22;;;;;;;15.00;12.23;;;;;;;17.53;66.60;100969.75;5030675;28;20103;-82
2023/09/03 06:08:49;;;;;;;14.23;11.93;;;;;;;17.55;66.78;100966.00;5031556;28;20402;-83
2023/09/03 06:11:15;;;;;;;16.38;13.32;;;;;;;17.60;67.12;100970.19;5030649;28;20061;-83
2023/09/03 06:13:42;;;;;;;16.40;11.85;;;;;;;17.62;66.91;100966.47;5030733;28;20049;-82
2023/09/03 06:16:08;;;;;;;16.65;11.98;;;;;;;17.65;66.79;100973.38;5030536;28;20115;-83
2023/09/03 06:18:35;;;;;;;15.48;12.13;;;;;;;17.68;66.83;100975.84;5013039;28;20132;-80
2023/09/03 06:21:02;;;;;;;11.80;10.43;;;;;;;17.70;67.06;100982.78;5031304;28;20107;-80
2023/09/03 06:23:28;;;;;;;12.45;10.30;;;;;;;17.74;67.11;100980.75;5025251;28;20060;-80
2023/09/03 06:25:55;;;;;;;11.10;9.10;;;;;;;17.78;67.30;100971.59;5032792;28;20100;-80
2023/09/03 06:28:22;;;;;;;12.05;8.95;;;;;;;17.84;67.18;100972.97;5041609;28;20149;-81
2023/09/03 06:30:50;;;;;;;9.73;8.45;;;;;;;17.90;67.33;100974.38;5031246;28;20056;-80
2023/09/03 06:33:16;;;;;;;10.98;8.55;;;;;;;17.95;67.40;100974.91;5037003;28;20655;-81
2023/09/03 06:35:43;;;;;;;10.45;7.88;;;;;;;18.01;67.31;100978.97;5049383;28;20049;-81
2023/09/03 06:38:09;;;;;;;9.65;7.50;;;;;;;18.08;67.30;100996.25;5044543;28;20084;-81
2023/09/03 06:40:36;;;;;;;12.07;8.23;;;;;;;18.14;67.51;100993.19;5031256;28;20142;-80
2023/09/03 06:43:03;;;;;;;12.18;7.68;;;;;;;18.20;67.45;100990.06;5048755;28;20045;-80
2023/09/03 06:45:30;;;;;;;11.40;7.30;;;;;;;18.27;67.53;100993.16;5049954;28;20056;-81
2023/09/03 06:47:57;;;;;;;9.98;7.32;;;;;;;18.33;67.48;100987.41;5041502;28;20124;-81
2023/09/03 06:50:23;;;;;;;8.95;6.75;;;;;;;18.39;66.96;100983.44;5042031;28;20428;-81
2023/09/03 06:52:50;;;;;;;7.07;5.22;;;;;;;18.45;67.05;100984.81;5037506;28;20128;-81
2023/09/03 06:55:16;;;;;;;7.85;5.75;;;;;;;18.49;66.76;100989.84;5049033;28;20493;-81
2023/09/03 06:57:45;;;;;;;7.65;6.00;;;;;;;18.55;66.87;100990.38;5043707;28;20049;-81
2023/09/03 07:00:12;;;;;;;7.63;5.25;;;;;;;18.58;66.64;101001.66;5032673;28;20046;-81
2023/09/03 07:02:38;;;;;;;9.10;6.00;;;;;;;18.62;66.61;100995.13;5034692;28;20118;-81
2023/09/03 07:05:05;;;;;;;8.50;4.82;;;;;;;18.66;66.66;100997.59;5016030;28;20517;-80
2023/09/03 07:07:32;;;;;;;10.57;5.82;;;;;;;18.70;66.51;100996.41;5021212;28;20094;-81
2023/09/03 07:10:00;;;;;;;7.50;5.32;;;;;;;18.72;66.18;100991.81;5053713;28;20053;-81
2023/09/03 07:12:26;;;;;;;9.48;4.93;;;;;;;18.76;66.37;100987.97;5051680;28;20128;-81
2023/09/03 07:14:53;;;;;;;9.48;4.78;;;;;;;18.80;66.10;100988.63;5036116;28;20466;-80
2023/09/03 07:17:19;;;;;;;9.38;4.43;;;;;;;18.85;66.16;100986.47;5049666;28;20057;-81
2023/09/03 07:19:46;;;;;;;7.15;4.90;;;;;;;18.88;66.11;100983.56;5033638;28;20394;-81
2023/09/03 07:22:12;;;;;;;7.97;4.95;;;;;;;18.92;66.17;100989.53;5035706;28;20144;-80
2023/09/03 07:24:39;;;;;;;8.82;4.25;;;;;;;18.95;65.85;100983.97;5051462;28;20052;-81
2023/09/03 07:27:06;;;;;;;6.47;4.15;;;;;;;18.99;66.19;100988.97;5035624;28;20053;-81
2023/09/03 07:29:32;;;;;;;6.53;4.25;;;;;;;19.02;66.15;100985.22;5016491;28;20057;-81
2023/09/03 07:31:59;;;;;;;5.07;3.97;;;;;;;19.05;65.87;100982.34;5033473;28;20061;-80
2023/09/03 07:34:25;;;;;;;5.95;3.92;;;;;;;19.10;65.84;100987.38;5051389;28;20045;-82
2023/09/03 07:36:52;;;;;;;6.22;3.03;;;;;;;19.13;65.65;100990.66;5034758;28;20088;-80
2023/09/03 07:39:18;;;;;;;4.13;3.15;;;;;;;19.16;65.41;100992.25;5053119;28;20174;-81
2023/09/03 07:41:46;;;;;;;4.47;3.05;;;;;;;19.20;65.63;100993.72;5050969;28;20056;-81
2023/09/03 07:44:12;;;;;;;7.80;3.40;;;;;;;19.23;65.55;100996.19;5050973;28;20049;-80
2023/09/03 07:46:39;;;;;;;7.95;3.13;;;;;;;19.27;65.49;101007.47;5052619;28;20119;-81
2023/09/03 07:49:05;;;;;;;4.53;3.22;;;;;;;19.32;65.49;101013.31;5053178;28;20056;-80
2023/09/03 07:51:32;;;;;;;3.53;2.60;;;;;;;19.37;65.40;101004.97;5042396;28;20053;-80
2023/09/03 07:53:58;;;;;;;4.68;3.20;;;;;;;19.41;65.13;101009.13;5023917;28;20394;-81
2023/09/03 07:56:25;;;;;;;5.65;3.10;;;;;;;19.46;65.02;101019.44;5051116;28;20059;-81
2023/09/03 07:58:52;;;;;;;5.00;2.88;;;;;;;19.49;64.86;101014.75;5052187;28;20092;-81
2023/09/03 08:01:19;;;;;;;7.05;2.85;;;;;;;19.52;64.33;101014.50;5052320;28;20052;-80
2023/09/03 08:03:46;;;;;;;4.93;2.40;;;;;;;19.56;64.35;101020.47;5037300;28;20143;-80
2023/09/03 08:06:13;;;;;;;4.47;2.83;;;;;;;19.60;64.76;101021.94;5016284;28;20053;-80
2023/09/03 08:08:40;;;;;;;8.05;2.60;;;;;;;19.64;64.53;101027.91;5032806;28;20053;-81
2023/09/03 08:11:07;;;;;;;3.10;2.33;;;;;;;19.67;64.45;101017.00;5031463;28;20136;-80
2023/09/03 08:13:34;;;;;;;3.75;2.05;;;;;;;19.70;64.22;101018.56;5029156;28;20048;-80
2023/09/03 08:16:02;;;;;;;4.85;2.17;;;;;;;19.74;64.36;101028.06;5035907;28;20128;-81
2023/09/03 08:18:28;;;;;;;3.63;2.28;;;;;;;19.77;63.91;101031.34;5046754;28;20044;-81
2023/09/03 08:20:55;;;;;;;4.35;2.60;;;;;;;19.80;63.79;101022.25;5034368;28;20449;-82
2023/09/03 08:23:22;;;;;;;4.57;2.65;;;;;;;19.83;63.80;101024.69;5045773;28;20057;-82
2023/09/03 08:25:49;;;;;;;2.92;1.90;;;;;;;19.86;63.81;101028.94;5032088;28;20049;-81
2023/09/03 08:29:02;;;;;;;6.05;2.20;;;;;;;19.85;63.82;101029.91;5032820;28;20049;-81
2023/09/03 08:31:28;;;;;;;4.78;2.30;;;;;;;19.97;63.53;101034.34;5036653;28;20579;-81
2023/09/03 08:33:56;;;;;;;3.03;2.17;;;;;;;20.01;63.45;101026.94;5052009;28;20045;-81
2023/09/03 08:36:22;;;;;;;3.97;2.30;;;;;;;20.05;63.75;101031.09;5051880;28;20048;-81
2023/09/03 08:38:49;;;;;;;4.50;1.90;;;;;;;20.09;63.98;101037.91;5050018;28;20144;-81
2023/09/03 08:41:18;;;;;;;3.65;2.42;;;;;;;20.17;63.84;101039.97;5050210;28;20111;-81
2023/09/03 08:43:49;;;;;;;4.18;2.45;;;;;;;20.23;63.19;101044.00;5051818;28;20207;-82
2023/09/03 08:46:19;;;;;;;3.17;2.15;;;;;;;20.29;63.44;101047.03;5052052;28;20707;-81
2023/09/03 08:48:47;;;;;;;3.95;2.28;;;;;;;20.36;62.92;101050.09;5037274;28;20050;-81
2023/09/03 08:51:17;;;;;;;3.47;2.03;;;;;;;20.43;63.38;101050.47;5031719;28;20060;-81
2023/09/03 08:53:45;;;;;;;2.63;2.00;;;;;;;20.48;62.91;101050.13;5036699;28;20130;-81
2023/09/03 08:56:12;;;;;;;3.53;1.98;;;;;;;20.54;63.33;101049.63;5031811;28;20134;-81
2023/09/03 08:58:38;;;;;;;3.65;1.98;;;;;;;20.59;62.85;101055.44;5047063;28;20090;-81
2023/09/03 09:01:08;;;;;;;3.83;2.53;;;;;;;20.65;63.26;101065.69;5050687;28;20114;-81
2023/09/03 09:03:36;;;;;;;5.82;2.15;;;;;;;20.73;63.18;101066.88;5051532;28;20091;-81
2023/09/03 09:06:06;;;;;;;3.33;2.17;;;;;;;20.83;63.14;101068.69;5043031;28;20103;-81
2023/09/03 09:08:34;;;;;;;7.72;2.75;;;;;;;20.95;62.54;101072.28;5013815;28;20524;-81
2023/09/03 09:11:07;;;;;;;4.50;2.15;;;;;;;21.03;62.55;101063.63;5032119;28;20107;-81
2023/09/03 09:13:36;;;;;;;3.58;1.90;;;;;;;21.17;61.89;101062.50;5031556;28;20053;-82
2023/09/03 09:16:02;;;;;;;3.00;1.92;;;;;;;21.28;62.57;101064.31;5031217;28;20045;-82
2023/09/03 09:18:29;;;;;;;3.78;1.50;;;;;;;21.39;61.41;101067.91;5031432;28;20049;-82
2023/09/03 09:20:59;;;;;;;2.63;1.75;;;;;;;21.47;61.32;101058.28;5032146;28;20053;-81
2023/09/03 09:23:26;;;;;;;4.05;1.55;;;;;;;21.56;60.63;101058.47;5042935;28;20044;-82
2023/09/03 09:25:58;;;;;;;2.22;1.60;;;;;;;21.60;59.68;101058.09;5050968;28;20496;-82
2023/09/03 09:28:26;;;;;;;6.03;2.10;;;;;;;21.69;60.20;101051.13;5034723;28;20502;-81
2023/09/03 09:30:53;;;;;;;2.78;1.55;;;;;;;21.74;60.13;101054.31;5031767;28;20045;-82
2023/09/03 09:33:20;;;;;;;2.33;1.52;;;;;;;21.81;60.70;101048.41;5031222;28;20045;-81
2023/09/03 09:35:48;;;;;;;2.40;1.60;;;;;;;21.86;61.06;101049.72;5031332;28;20049;-82
2023/09/03 09:38:16;;;;;;;2.13;1.65;;;;;;;21.94;60.13;101046.41;5041778;28;20056;-83
2023/09/03 09:40:43;;;;;;;3.58;1.70;;;;;;;22.03;59.99;101054.63;5035659;28;20049;-81
2023/09/03 09:43:10;;;;;;;4.90;1.85;;;;;;;22.11;59.61;101060.19;5032075;28;20075;-82
2023/09/03 09:45:47;;;;;;;5.00;1.55;;;;;;;22.17;59.30;101058.81;5031094;28;20103;-82
2023/09/03 09:48:13;;;;;;;2.72;1.27;;;;;;;22.29;59.17;101064.97;5041617;28;20049;-81
2023/09/03 09:50:43;;;;;;;2.55;1.40;;;;;;;22.35;58.69;101070.63;5050647;28;20056;-82
2023/09/03 09:53:19;;;;;;;5.65;1.70;;;;;;;22.40;58.18;101067.56;5048847;28;20110;-81
2023/09/03 09:55:46;;;;;;;2.50;1.60;;;;;;;22.52;58.81;101065.66;5050789;28;20056;-81
2023/09/03 09:58:13;;;;;;;3.78;1.75;;;;;;;22.61;58.77;101066.72;5017457;28;20081;-81
2023/09/03 10:00:41;;;;;;;2.22;1.67;;;;;;;22.72;58.65;101065.78;5030362;28;20449;-82
2023/09/03 10:03:11;;;;;;;3.90;1.65;;;;;;;22.85;59.25;101063.72;5031674;28;20636;-82
2023/09/03 10:05:48;;;;;;;5.05;2.05;;;;;;;22.96;58.12;101068.13;5013650;28;20576;-83
2023/09/03 10:08:16;;;;;;;3.47;1.50;;;;;;;23.12;58.30;101072.97;5041734;28;20045;-82
2023/09/03 10:10:44;;;;;;;2.72;1.70;;;;;;;23.25;58.63;101064.63;5050446;28;20105;-82
2023/09/03 10:13:10;;;;;;;1.85;1.40;;;;;;;23.37;58.49;101069.94;5048716;28;20128;-81
2023/09/03 10:15:38;;;;;;;1.70;1.30;;;;;;;23.50;57.28;101066.94;5050621;28;20053;-81
2023/09/03 10:18:08;;;;;;;3.17;1.42;;;;;;;23.61;56.61;101068.66;5040412;28;20077;-81
2023/09/03 10:20:36;;;;;;;2.67;1.48;;;;;;;23.73;55.77;101072.06;5030218;28;20064;-81
2023/09/03 10:23:04;;;;;;;4.90;1.42;;;;;;;23.82;56.74;101065.84;5039391;28;20448;-80
2023/09/03 10:25:34;;;;;;;2.25;1.30;;;;;;;23.89;56.12;101064.25;5048246;28;20055;-80
2023/09/03 10:28:05;;;;;;;2.97;1.52;;;;;;;23.98;54.60;101067.94;5012944;28;20049;-80
2023/09/03 10:30:38;;;;;;;3.17;1.45;;;;;;;24.08;57.30;101062.56;5030218;28;20041;-79
2023/09/03 10:33:08;;;;;;;2.50;1.60;;;;;;;24.18;55.40;101065.25;5048213;28;20486;-80
2023/09/03 10:35:35;;;;;;;3.47;1.60;;;;;;;24.29;54.79;101069.63;5052133;28;20080;-80
2023/09/03 10:38:02;;;;;;;2.97;1.65;;;;;;;24.36;55.07;101069.88;5044559;28;20049;-80
2023/09/03 10:40:29;;;;;;;5.25;1.35;;;;;;;24.44;53.92;101072.66;5034204;28;20115;-80
2023/09/03 10:43:14;;;;;;;2.60;1.40;;;;;;;24.44;52.94;101078.03;5035414;28;20085;-79
2023/09/03 10:46:04;;;;;;;1.98;1.42;;;;;;;24.47;53.11;101072.38;5035230;28;20115;-80
2023/09/03 10:48:31;;;;;;;3.13;1.50;;;;;;;24.55;54.45;101072.50;5047468;28;20053;-80
2023/09/03 10:50:57;;;;;;;2.80;1.65;;;;;;;24.60;53.45;101078.28;5043635;28;20088;-80
2023/09/03 10:53:41;;;;;;;1.30;1.20;;;;;;;24.63;53.30;101081.69;5037849;28;20136;-80
2023/09/03 10:56:10;;;;;;;2.78;1.30;;;;;;;24.76;53.63;101082.19;5017492;28;20088;-79
2023/09/03 10:58:55;;;;;;;2.60;1.42;;;;;;;24.86;53.98;101082.19;5034142;28;20099;-80
2023/09/03 11:01:30;;;;;;;4.30;1.73;;;;;;;25.08;54.31;101085.47;5038113;28;20390;-80
2023/09/03 11:03:58;;;;;;;2.40;1.33;;;;;;;25.32;54.05;101082.19;5053507;28;20049;-80
2023/09/03 11:06:25;;;;;;;2.88;1.63;;;;;;;25.63;55.29;101089.09;5053650;28;20468;-81
2023/09/03 11:09:01;;;;;;;1.90;1.40;;;;;;;26.03;53.74;101086.91;5036096;28;20453;-80
2023/09/03 11:11:30;;;;;;;1.75;1.40;;;;;;;26.53;55.14;101084.53;5034616;28;20498;-80
2023/09/03 11:13:57;;;;;;;2.92;1.70;;;;;;;27.08;54.20;101076.19;5016025;28;20054;-81
2023/09/03 11:16:27;;;;;;;6.68;1.85;;;;;;;27.63;52.31;101079.34;5033598;28;20648;-80
2023/09/03 11:18:54;;;;;;;2.00;1.40;;;;;;;28.16;51.10;101071.72;5049960;28;20084;-80
2023/09/03 11:21:27;;;;;;;3.20;1.40;;;;;;;28.54;48.33;101073.00;5051255;28;20053;-79
2023/09/03 11:24:16;;;;;;;3.10;1.40;;;;;;;28.68;47.47;101076.84;5030198;28;20106;-80